createdAt,value
2022-12-14T00:02:17.936Z,10.05
2022-12-14T00:05:03.601Z,10.43
2022-12-14T00:07:49.087Z,9.43
2022-12-14T00:10:35.944Z,9.98
2022-12-14T00:13:21.631Z,9.63
2022-12-14T00:16:18.137Z,9.45
2022-12-14T00:19:05.384Z,9.45
2022-12-14T00:21:51.596Z,9.50
2022-12-14T00:24:37.221Z,9.32
2022-12-14T00:27:22.579Z,8.73
2022-12-14T00:30:08.816Z,9.30
2022-12-14T00:32:54.682Z,9.20
2022-12-14T00:35:39.965Z,8.27
2022-12-14T00:38:26.116Z,8.35
2022-12-14T00:41:12.596Z,9.05
2022-12-14T00:43:58.142Z,9.07
2022-12-14T00:46:43.738Z,8.15
2022-12-14T00:49:29.064Z,8.30
2022-12-14T00:52:14.568Z,8.35
2022-12-14T00:55:00.369Z,8.07
2022-12-14T00:57:45.972Z,8.18
2022-12-14T01:00:32.345Z,8.07
2022-12-14T01:03:17.540Z,8.55
2022-12-14T01:06:03.660Z,8.90
2022-12-14T01:08:49.408Z,9.30
2022-12-14T01:11:35.389Z,8.88
2022-12-14T01:14:21.859Z,8.90
2022-12-14T01:17:07.032Z,8.85
2022-12-14T01:19:53.063Z,8.70
2022-12-14T01:22:38.760Z,9.73
2022-12-14T01:25:24.465Z,8.15
2022-12-14T01:28:09.601Z,9.32
2022-12-14T01:30:54.999Z,8.80
2022-12-14T01:33:40.690Z,8.55
2022-12-14T01:36:29.269Z,8.55
2022-12-14T01:39:15.901Z,8.10
2022-12-14T01:42:01.309Z,8.68
2022-12-14T01:44:54.881Z,8.43
2022-12-14T01:47:46.631Z,8.77
2022-12-14T01:50:39.540Z,8.52
2022-12-14T01:53:25.461Z,8.40
2022-12-14T01:56:11.230Z,8.90
2022-12-14T01:59:01.839Z,7.72
2022-12-14T02:01:48.328Z,9.18
2022-12-14T02:04:37.600Z,8.63
2022-12-14T02:07:24.439Z,9.52
2022-12-14T02:10:10.061Z,9.27
2022-12-14T02:13:14.733Z,10.07
2022-12-14T02:16:00.294Z,10.10
2022-12-14T02:18:45.891Z,10.60
2022-12-14T02:22:06.523Z,10.95
2022-12-14T02:25:39.157Z,10.63
2022-12-14T02:28:38.731Z,10.18
2022-12-14T02:31:36.294Z,10.50
2022-12-14T02:34:53.516Z,10.70
2022-12-14T02:38:07.035Z,9.93
2022-12-14T02:44:13.029Z,8.93
2022-12-14T02:47:28.066Z,9.35
2022-12-14T02:50:25.299Z,10.32
2022-12-14T02:53:13.705Z,9.98
2022-12-14T02:56:04.050Z,10.52
2022-12-14T02:58:51.887Z,9.48
2022-12-14T03:01:38.875Z,10.18
2022-12-14T03:04:24.559Z,10.40
2022-12-14T03:07:44.765Z,10.38
2022-12-14T03:10:50.070Z,9.30
2022-12-14T03:13:46.341Z,8.95
2022-12-14T03:16:42.927Z,8.63
2022-12-14T03:19:40.500Z,9.43
2022-12-14T03:22:36.802Z,9.00
2022-12-14T03:25:30.569Z,8.73
2022-12-14T03:28:30.455Z,9.95
2022-12-14T03:31:22.226Z,9.68
2022-12-14T03:34:13.092Z,8.10
2022-12-14T03:37:43.116Z,8.95
2022-12-14T03:40:49.875Z,8.20
2022-12-14T03:43:58.532Z,8.23
2022-12-14T03:46:57.634Z,8.10
2022-12-14T03:50:12.503Z,7.90
2022-12-14T03:53:11.019Z,7.95
2022-12-14T03:56:39.534Z,7.88
2022-12-14T03:59:45.455Z,8.00
2022-12-14T04:02:47.675Z,7.70
2022-12-14T04:05:48.552Z,8.48
2022-12-14T04:08:58.335Z,8.15
2022-12-14T04:12:09.468Z,7.90
2022-12-14T04:15:20.151Z,7.68
2022-12-14T04:18:28.650Z,7.68
2022-12-14T04:21:58.492Z,7.88
2022-12-14T04:25:25.452Z,7.28
2022-12-14T04:28:35.299Z,7.85
2022-12-14T04:31:24.955Z,8.32
2022-12-14T04:34:13.072Z,7.95
2022-12-14T04:37:03.416Z,7.22
2022-12-14T04:39:56.303Z,8.48
2022-12-14T04:42:54.153Z,8.90
2022-12-14T04:45:50.776Z,7.93
2022-12-14T04:48:48.756Z,8.95
2022-12-14T04:51:45.211Z,9.10
2022-12-14T04:54:53.313Z,8.30
2022-12-14T04:57:49.204Z,7.90
2022-12-14T05:00:40.903Z,8.27
2022-12-14T05:03:32.282Z,8.15
2022-12-14T05:06:24.035Z,9.13
2022-12-14T05:09:25.254Z,8.95
2022-12-14T05:12:20.953Z,7.75
2022-12-14T05:15:13.185Z,7.85
2022-12-14T05:18:03.866Z,7.70
2022-12-14T05:20:49.569Z,8.18
2022-12-14T05:23:34.815Z,8.07
2022-12-14T05:26:20.197Z,7.38
2022-12-14T05:29:05.790Z,7.82
2022-12-14T05:31:52.117Z,7.88
2022-12-14T05:34:37.179Z,7.45
2022-12-14T05:37:22.591Z,7.70
2022-12-14T05:40:08.744Z,7.65
2022-12-14T05:43:04.638Z,7.47
2022-12-14T05:45:50.115Z,6.97
2022-12-14T05:48:35.626Z,7.63
2022-12-14T05:51:20.981Z,7.32
2022-12-14T05:54:06.536Z,8.00
2022-12-14T05:56:52.541Z,7.72
2022-12-14T05:59:37.648Z,7.55
2022-12-14T06:02:23.247Z,7.45
2022-12-14T06:05:09.122Z,6.72
2022-12-14T06:07:54.349Z,7.85
2022-12-14T06:10:39.757Z,7.80
2022-12-14T06:13:25.398Z,7.10
2022-12-14T06:16:13.092Z,8.07
2022-12-14T06:19:00.612Z,7.60
2022-12-14T06:21:46.031Z,7.20
2022-12-14T06:24:31.732Z,6.57
2022-12-14T06:27:17.154Z,7.95
2022-12-14T06:30:02.915Z,7.22
2022-12-14T06:32:48.334Z,8.02
2022-12-14T06:35:33.645Z,7.80
2022-12-14T06:38:18.945Z,8.90
2022-12-14T06:41:08.368Z,8.93
2022-12-14T06:43:53.881Z,8.70
2022-12-14T06:46:39.864Z,9.50
2022-12-14T06:49:25.199Z,8.88
2022-12-14T06:52:10.721Z,8.25
2022-12-14T06:54:56.402Z,8.68
2022-12-14T06:57:41.980Z,9.57
2022-12-14T07:00:27.328Z,10.25
2022-12-14T07:03:12.791Z,10.43
2022-12-14T07:05:58.936Z,10.98
2022-12-14T07:08:45.062Z,10.57
2022-12-14T07:11:31.326Z,10.73
2022-12-14T07:14:16.835Z,10.35
2022-12-14T07:17:02.382Z,10.57
2022-12-14T07:19:49.012Z,10.20
2022-12-14T07:22:35.953Z,10.10
2022-12-14T07:25:21.453Z,11.43
2022-12-14T07:28:07.187Z,11.13
2022-12-14T07:30:57.238Z,10.23
2022-12-14T07:33:43.252Z,11.02
2022-12-14T07:36:30.195Z,10.82
2022-12-14T07:39:15.582Z,9.80
2022-12-14T07:42:01.018Z,10.20
2022-12-14T07:44:48.109Z,10.77
2022-12-14T07:47:33.624Z,10.48
2022-12-14T07:50:19.142Z,10.80
2022-12-14T07:53:04.777Z,10.15
2022-12-14T07:55:50.617Z,10.80
2022-12-14T07:58:36.852Z,10.63
2022-12-14T08:01:25.124Z,9.57
2022-12-14T08:04:14.509Z,10.13
2022-12-14T08:07:00.098Z,9.93
2022-12-14T08:09:45.580Z,9.27
2022-12-14T08:12:30.930Z,9.73
2022-12-14T08:15:16.393Z,10.13
2022-12-14T08:18:01.778Z,10.20
2022-12-14T08:20:53.384Z,10.10
2022-12-14T08:23:39.120Z,10.73
2022-12-14T08:26:31.553Z,11.10
2022-12-14T08:29:19.148Z,11.07
2022-12-14T08:32:04.945Z,10.98
2022-12-14T08:34:50.024Z,11.35
2022-12-14T08:37:35.430Z,11.25
2022-12-14T08:40:20.882Z,9.45
2022-12-14T08:43:07.368Z,9.77
2022-12-14T08:45:54.951Z,10.32
2022-12-14T08:48:40.123Z,10.90
2022-12-14T08:51:26.983Z,11.25
2022-12-14T08:54:12.867Z,11.18
2022-12-14T08:56:58.601Z,10.82
2022-12-14T09:00:01.180Z,11.95
2022-12-14T09:02:51.022Z,11.25
2022-12-14T09:05:36.413Z,11.25
2022-12-14T09:08:22.355Z,10.38
2022-12-14T09:11:12.570Z,10.55
2022-12-14T09:13:58.132Z,10.40
2022-12-14T09:16:43.325Z,10.73
2022-12-14T09:19:29.309Z,10.23
2022-12-14T09:22:14.734Z,9.80
2022-12-14T09:25:00.457Z,10.20
2022-12-14T09:27:45.536Z,10.50
2022-12-14T09:30:31.899Z,9.63
2022-12-14T09:33:17.370Z,10.07
2022-12-14T09:36:14.645Z,10.43
2022-12-14T09:38:59.818Z,9.98
2022-12-14T09:41:52.370Z,9.23
2022-12-14T09:44:51.976Z,9.40
2022-12-14T09:47:49.452Z,9.70
2022-12-14T09:50:35.755Z,9.30
2022-12-14T09:53:22.205Z,9.45
2022-12-14T09:56:10.629Z,9.90
2022-12-14T10:51:12.944Z,5.30
2022-12-14T10:54:01.919Z,5.80
2022-12-14T10:56:49.861Z,5.90
2022-12-14T10:59:43.801Z,6.90
2022-12-14T11:02:36.083Z,7.50
2022-12-14T11:05:40.291Z,7.40
2022-12-14T11:08:40.525Z,7.40
2022-12-14T11:11:26.790Z,9.90
2022-12-14T11:14:16.787Z,9.25
2022-12-14T11:17:02.870Z,9.13
2022-12-14T11:20:08.687Z,9.07
2022-12-14T11:22:55.789Z,9.55
2022-12-14T11:25:43.749Z,10.05
2022-12-14T11:28:37.383Z,10.55
2022-12-14T11:31:34.679Z,11.00
2022-12-14T11:34:41.196Z,10.60
2022-12-14T11:37:31.648Z,9.80
2022-12-14T11:40:22.614Z,11.10
2022-12-14T11:43:35.012Z,10.70
2022-12-14T11:46:20.690Z,12.10
2022-12-14T11:49:21.142Z,10.82
2022-12-14T11:52:20.217Z,12.07
2022-12-14T11:55:26.718Z,11.65
2022-12-14T11:58:22.863Z,12.80
2022-12-14T12:01:24.754Z,12.32
2022-12-14T12:04:15.045Z,11.47
2022-12-14T12:07:13.260Z,12.45
2022-12-14T12:10:23.773Z,11.00
2022-12-14T12:13:24.191Z,11.43
2022-12-14T12:16:25.322Z,13.57
2022-12-14T12:19:25.957Z,11.75
2022-12-14T12:22:13.818Z,11.05
2022-12-14T12:28:24.536Z,11.30
2022-12-14T12:31:18.589Z,10.60
2022-12-14T12:34:13.657Z,10.60
2022-12-14T12:37:25.735Z,11.95
2022-12-14T12:40:36.359Z,11.85
2022-12-14T12:43:54.318Z,12.95
2022-12-14T12:47:22.437Z,12.07
2022-12-14T12:50:07.245Z,11.45
2022-12-14T12:53:14.615Z,10.50
2022-12-14T12:56:23.800Z,11.10
2022-12-14T12:59:19.939Z,11.27
2022-12-14T13:02:31.728Z,10.60
2022-12-14T13:05:45.744Z,12.20
2022-12-14T13:08:31.515Z,9.85
2022-12-14T13:11:27.370Z,9.63
2022-12-14T13:14:35.708Z,9.63
2022-12-14T13:17:33.508Z,8.60
2022-12-14T13:20:27.359Z,7.75
2022-12-14T13:23:43.595Z,8.88
2022-12-14T13:26:57.408Z,8.20
2022-12-14T13:29:53.756Z,6.72
2022-12-14T13:32:57.738Z,6.60
2022-12-14T13:36:10.291Z,6.35
2022-12-14T13:39:37.324Z,6.83
2022-12-14T13:42:37.206Z,5.97
2022-12-14T13:45:30.191Z,5.78
2022-12-14T13:48:24.959Z,7.65
2022-12-14T13:51:29.764Z,6.93
2022-12-14T13:54:29.185Z,7.00
2022-12-14T13:57:23.219Z,5.63
2022-12-14T14:00:47.334Z,5.60
2022-12-14T14:03:35.904Z,6.13
2022-12-14T14:06:30.719Z,6.43
2022-12-14T14:09:34.325Z,5.95
2022-12-14T14:12:38.650Z,5.50
2022-12-14T14:15:32.700Z,5.60
2022-12-14T14:18:22.483Z,5.88
2022-12-14T14:21:13.620Z,6.13
2022-12-14T14:24:06.408Z,5.57
2022-12-14T14:27:10.521Z,5.68
2022-12-14T14:29:57.884Z,5.15
2022-12-14T14:32:43.511Z,5.35
2022-12-14T14:35:37.302Z,4.80
2022-12-14T14:38:29.024Z,4.55
2022-12-14T14:41:25.657Z,4.88
2022-12-14T14:44:33.423Z,4.97
2022-12-14T14:47:33.079Z,4.35
2022-12-14T14:50:25.885Z,3.97
2022-12-14T14:56:36.947Z,4.20
2022-12-14T14:59:22.754Z,5.03
2022-12-14T15:02:30.121Z,5.55
2022-12-14T15:08:39.305Z,5.30
2022-12-14T15:11:28.024Z,5.93
2022-12-14T15:14:43.372Z,6.25
2022-12-14T15:17:32.126Z,6.90
2022-12-14T15:20:29.622Z,7.18
2022-12-14T15:23:15.195Z,6.97
2022-12-14T15:26:02.598Z,6.57
2022-12-14T15:28:58.073Z,7.35
2022-12-14T15:31:44.664Z,7.75
2022-12-14T15:34:29.993Z,7.80
2022-12-14T15:37:36.527Z,8.18
2022-12-14T15:40:25.222Z,9.57
2022-12-14T15:43:18.531Z,8.10
2022-12-14T15:46:04.100Z,8.95
2022-12-14T15:48:59.951Z,8.13
2022-12-14T15:51:45.263Z,9.05
2022-12-14T15:54:31.071Z,8.80
2022-12-14T15:57:19.142Z,10.10
2022-12-14T16:00:04.889Z,8.55
2022-12-14T16:02:50.327Z,8.55
2022-12-14T16:05:36.320Z,8.82
2022-12-14T16:08:22.505Z,8.35
2022-12-14T16:11:26.878Z,8.18
2022-12-14T16:14:45.301Z,8.38
2022-12-14T16:17:34.119Z,8.45
2022-12-14T16:20:23.454Z,8.02
2022-12-14T16:23:14.929Z,8.25
2022-12-14T16:26:03.220Z,7.93
2022-12-14T16:28:48.420Z,9.05
2022-12-14T16:31:34.278Z,8.10
2022-12-14T16:34:23.546Z,9.10
2022-12-14T16:37:32.624Z,8.98
2022-12-14T16:40:39.652Z,8.98
2022-12-14T16:43:37.452Z,8.85
2022-12-14T16:46:23.299Z,9.02
2022-12-14T16:49:21.135Z,8.23
2022-12-14T16:52:09.760Z,8.88
2022-12-14T16:55:13.277Z,8.50
2022-12-14T16:57:58.791Z,8.05
2022-12-14T17:01:00.616Z,8.00
2022-12-14T17:03:58.913Z,7.80
2022-12-14T17:06:53.171Z,8.55
2022-12-14T17:09:39.729Z,8.10
2022-12-14T17:12:26.375Z,8.13
2022-12-14T17:15:19.985Z,7.53
2022-12-14T17:18:07.895Z,8.02
2022-12-14T17:20:53.719Z,8.32
2022-12-14T17:23:41.646Z,7.93
2022-12-14T17:26:30.781Z,8.60
2022-12-14T17:29:23.250Z,8.45
2022-12-14T17:32:13.532Z,8.98
2022-12-14T17:35:00.083Z,8.73
2022-12-14T17:37:45.972Z,8.57
2022-12-14T17:40:31.196Z,7.95
2022-12-14T17:43:20.892Z,8.52
2022-12-14T17:46:06.330Z,8.73
2022-12-14T17:48:52.050Z,8.27
2022-12-14T17:51:41.751Z,9.05
2022-12-14T17:54:29.177Z,8.70
2022-12-14T17:57:17.140Z,7.75
2022-12-14T18:00:20.819Z,8.27
2022-12-14T18:03:07.221Z,7.22
2022-12-14T18:05:53.429Z,8.30
2022-12-14T18:08:38.503Z,8.18
2022-12-14T18:11:26.990Z,8.45
2022-12-14T18:14:15.506Z,7.68
2022-12-14T18:17:01.127Z,8.25
2022-12-14T18:19:47.918Z,7.13
2022-12-14T18:22:35.052Z,6.93
2022-12-14T18:25:40.892Z,7.70
2022-12-14T18:28:26.343Z,8.00
2022-12-14T18:31:37.205Z,7.55
2022-12-14T18:34:22.848Z,8.25
2022-12-14T18:37:08.614Z,8.45
2022-12-14T18:39:54.148Z,8.25
2022-12-14T18:42:39.447Z,8.45
2022-12-14T18:45:28.371Z,8.88
2022-12-14T18:48:13.687Z,8.90
2022-12-14T18:50:59.391Z,8.40
2022-12-14T18:53:44.716Z,7.75
2022-12-14T18:56:30.408Z,8.48
2022-12-14T18:59:15.653Z,9.38
2022-12-14T19:02:02.058Z,8.15
2022-12-14T19:04:51.385Z,9.10
2022-12-14T19:07:36.916Z,8.50
2022-12-14T19:10:25.146Z,7.60
2022-12-14T19:13:26.165Z,7.88
2022-12-14T19:16:12.244Z,7.55
2022-12-14T19:18:57.782Z,8.02
2022-12-14T19:21:42.953Z,7.35
2022-12-14T19:24:28.812Z,7.47
2022-12-14T19:27:14.137Z,7.25
2022-12-14T19:29:59.839Z,6.97
2022-12-14T19:32:44.999Z,6.88
2022-12-14T19:35:34.523Z,7.00
2022-12-14T19:38:20.060Z,7.30
2022-12-14T19:41:12.372Z,7.55
2022-12-14T19:43:58.027Z,7.20
2022-12-14T19:46:43.872Z,6.88
2022-12-14T19:49:29.390Z,7.80
2022-12-14T19:52:14.872Z,7.45
2022-12-14T19:55:03.040Z,7.80
2022-12-14T19:57:49.078Z,9.05
2022-12-14T20:00:34.446Z,9.48
2022-12-14T20:03:20.275Z,9.93
2022-12-14T20:06:06.513Z,9.23
2022-12-14T20:08:55.998Z,8.98
2022-12-14T20:11:42.404Z,8.40
2022-12-14T20:14:27.960Z,8.43
2022-12-14T20:17:13.431Z,8.23
2022-12-14T20:19:59.260Z,9.85
2022-12-14T20:22:44.335Z,8.77
2022-12-14T20:25:31.488Z,9.13
2022-12-14T20:28:16.824Z,8.63
2022-12-14T20:31:06.154Z,8.60
2022-12-14T20:33:52.466Z,8.50
2022-12-14T20:36:38.034Z,7.97
2022-12-14T20:39:23.391Z,7.47
2022-12-14T20:42:09.125Z,6.80
2022-12-14T20:44:54.655Z,7.65
2022-12-14T20:47:40.259Z,6.85
2022-12-14T20:50:25.732Z,6.72
2022-12-14T20:53:11.112Z,5.97
2022-12-14T20:55:56.868Z,6.28
2022-12-14T20:58:45.996Z,5.95
2022-12-14T21:01:32.017Z,5.68
2022-12-14T21:04:17.964Z,5.38
2022-12-14T21:07:03.362Z,5.60
2022-12-14T21:09:49.034Z,6.25
2022-12-14T21:12:34.816Z,5.93
2022-12-14T21:15:20.100Z,6.18
2022-12-14T21:18:05.627Z,5.55
2022-12-14T21:20:51.241Z,5.63
2022-12-14T21:23:36.524Z,5.43
2022-12-14T21:26:22.191Z,6.40
2022-12-14T21:29:11.206Z,5.68
2022-12-14T21:31:56.882Z,5.10
2022-12-14T21:34:42.936Z,5.38
2022-12-14T21:37:28.364Z,5.47
2022-12-14T21:40:33.676Z,5.05
2022-12-14T21:43:19.719Z,4.90
2022-12-14T21:46:05.173Z,6.25
2022-12-14T21:48:50.578Z,6.18
2022-12-14T21:51:36.218Z,7.38
2022-12-14T21:54:21.775Z,7.20
2022-12-14T21:57:25.712Z,8.55
2022-12-14T22:00:11.505Z,7.85
2022-12-14T22:02:59.952Z,8.10
2022-12-14T22:05:45.629Z,7.30
2022-12-14T22:08:31.231Z,6.30
2022-12-14T22:11:17.064Z,6.57
2022-12-14T22:14:02.618Z,6.63
2022-12-14T22:16:49.613Z,6.55
2022-12-14T22:19:35.703Z,6.70
2022-12-14T22:22:21.283Z,6.60
2022-12-14T22:25:07.174Z,6.97
2022-12-14T22:27:52.788Z,7.50
2022-12-14T22:30:38.336Z,7.35
2022-12-14T22:33:23.703Z,7.90
2022-12-14T22:36:09.313Z,7.47
2022-12-14T22:38:58.943Z,8.20
2022-12-14T22:41:44.351Z,8.93
2022-12-14T22:44:29.670Z,10.27
2022-12-14T22:47:14.993Z,9.07
2022-12-14T22:50:00.799Z,9.93
2022-12-14T22:52:49.583Z,9.48
2022-12-14T22:55:38.607Z,9.32
2022-12-14T22:58:24.565Z,9.73
2022-12-14T23:01:10.658Z,9.13
2022-12-14T23:03:56.224Z,9.35
2022-12-14T23:06:42.575Z,9.20
2022-12-14T23:09:46.728Z,8.43
2022-12-14T23:12:50.855Z,8.38
2022-12-14T23:15:54.505Z,9.20
2022-12-14T23:18:58.652Z,8.93
2022-12-14T23:22:02.500Z,9.80
2022-12-14T23:25:06.792Z,8.88
2022-12-14T23:28:10.500Z,8.85
2022-12-14T23:31:17.735Z,8.57
2022-12-14T23:34:21.676Z,8.38
2022-12-14T23:37:25.647Z,9.00
2022-12-14T23:40:30.251Z,8.15
2022-12-14T23:43:36.100Z,8.82
2022-12-14T23:46:39.994Z,8.63
2022-12-14T23:49:44.177Z,8.48
2022-12-14T23:52:47.987Z,8.43
2022-12-14T23:55:52.144Z,7.72
2022-12-14T23:58:55.856Z,7.90
